Main page
METAR-TAF:

METAR-TAF

Airports :

Biju Patnaik International Airport

Bhubaneswar, India

latitude: 20-14-40N, longitude: 85-49-04E, elevation: 45 m

Current weather observation

The report was made 1 hour and 12 minutes ago, at 18:30 UTC
Wind 2 kt from the North
Temperature 21°C
Humidity 100%
Pressure 1013 hPa
Visibility: 2000 m
mist

METAR: VEBS 011830Z 35002KT 2000 BR NSC 21/21 Q1013 NOSIG

Time: 01:12 (19:42 UTC)

Forecast

The report was made 2 hours and 42 minutes ago, at 17:00 UTC
Forecast valid from 01 at 18 UTC to 02 at 24 UTC
Wind 2 kt from the East
Visibility: 2500 m
mist
Becoming
from 02 at 03 UTC to 02 at 05 UTC
Wind 5 kt from the North
Visibility: 3500 m
Few clouds at a height of 2000 ft
Scattered clouds at a height of 10000 ft
haze
Becoming
from 02 at 13 UTC to 02 at 15 UTC
Wind kt from the North
Visibility: 2500 m
haze, mist

TAF: VEBS 011700Z 0118/0224 09002KT 2500 BR NSC BECMG 0203/0205 36005KT 3500 HZ FEW020 SCT100 BECMG 0213/0215 00000KT 2500 HZ BR NSC

Weather observations and forecasts of more than 4000 airports (METAR and TAF reports).

The available stations are represented by yellow and red dots on the map.

Hover mouse over dot to see the name of the station.

Then click to see weather observations and forecasts.

To change the map : click on the green buttons with a black cross to zoom in, on the green button with a dash to zoom out, or on the green arrows for adjacent maps.


METAR-TAF: